Time;durP1;ratioP1;P1;durP2;ratioP2;P2;SDS_P1;SDS_P2;PMS_P1;PMS_P2;Temp;Humidity;BMP_temperature;BMP_pressure;BME280_temperature;BME280_humidity;BME280_pressure;Samples;Min_cycle;Max_cycle;Signal;HPM_P1;HPM_P2
2023/08/22 00:00:22;;;;;;;7.55;4.15;;;16.70;99.90;;;;;;5035901;28;20163;-77
2023/08/22 00:02:48;;;;;;;7.03;3.88;;;16.70;99.90;;;;;;5034841;28;20124;-76
2023/08/22 00:05:14;;;;;;;5.85;3.58;;;16.70;99.90;;;;;;5035305;28;20087;-76
2023/08/22 00:07:41;;;;;;;7.53;4.07;;;16.70;99.90;;;;;;5034907;28;20049;-76
2023/08/22 00:10:08;;;;;;;8.23;4.22;;;16.70;99.90;;;;;;5051525;28;20049;-76
2023/08/22 00:12:33;;;;;;;7.47;4.00;;;16.70;99.90;;;;;;5034772;28;20469;-75
2023/08/22 00:14:59;;;;;;;7.82;4.40;;;16.70;99.90;;;;;;5034550;28;20041;-76
2023/08/22 00:17:25;;;;;;;6.82;3.88;;;16.60;99.90;;;;;;5034069;28;20135;-75
2023/08/22 00:19:51;;;;;;;7.25;4.28;;;16.60;99.90;;;;;;5034394;28;20045;-75
2023/08/22 00:22:16;;;;;;;6.38;3.95;;;16.60;99.90;;;;;;5052516;28;20068;-76
2023/08/22 00:24:42;;;;;;;8.43;4.47;;;16.60;99.90;;;;;;5033717;28;20087;-76
2023/08/22 00:27:11;;;;;;;9.38;4.40;;;16.60;99.90;;;;;;5052382;28;20044;-76
2023/08/22 00:29:37;;;;;;;6.28;4.43;;;16.70;99.90;;;;;;5034843;28;20432;-76
2023/08/22 00:32:03;;;;;;;8.00;4.63;;;16.60;99.90;;;;;;5032607;28;20070;-76
2023/08/22 00:34:29;;;;;;;8.68;4.70;;;16.70;99.90;;;;;;5034761;28;20059;-76
2023/08/22 00:36:54;;;;;;;6.68;5.05;;;16.60;99.90;;;;;;5051653;28;20474;-76
2023/08/22 00:39:20;;;;;;;10.43;4.68;;;16.60;99.90;;;;;;5051894;28;20128;-76
2023/08/22 00:41:46;;;;;;;8.93;4.60;;;16.60;99.90;;;;;;5034201;28;20115;-76
2023/08/22 00:44:12;;;;;;;8.32;5.18;;;16.60;99.90;;;;;;5052321;28;20395;-76
2023/08/22 00:46:37;;;;;;;8.93;5.03;;;16.50;99.90;;;;;;5033609;28;20044;-76
2023/08/22 00:49:08;;;;;;;8.13;4.78;;;16.50;99.90;;;;;;5034270;28;20102;-76
2023/08/22 00:51:35;;;;;;;9.48;4.68;;;16.50;99.90;;;;;;5051068;28;20110;-76
2023/08/22 00:54:00;;;;;;;8.60;5.07;;;16.60;99.90;;;;;;5035468;28;20496;-76
2023/08/22 00:56:26;;;;;;;6.97;4.40;;;16.60;99.90;;;;;;5034343;28;20037;-76
2023/08/22 00:58:52;;;;;;;8.07;4.82;;;16.50;99.90;;;;;;5033237;28;20041;-76
2023/08/22 01:01:19;;;;;;;9.68;4.50;;;16.50;99.90;;;;;;5051944;28;20045;-76
2023/08/22 01:03:44;;;;;;;7.35;4.45;;;16.60;99.90;;;;;;5034202;28;20430;-76
2023/08/22 01:06:37;;;;;;;8.18;4.88;;;16.60;99.90;;;;;;5012269;28;1118267;-76
2023/08/22 01:09:17;;;;;;;6.07;4.85;;;16.60;99.90;;;;;;5051923;28;20110;-76
2023/08/22 01:11:46;;;;;;;8.63;4.95;;;16.60;99.90;;;;;;5052610;28;20195;-76
2023/08/22 01:14:19;;;;;;;8.15;4.70;;;16.60;99.90;;;;;;5051932;28;20049;-76
2023/08/22 01:16:46;;;;;;;8.60;4.70;;;16.50;99.90;;;;;;5052526;28;20120;-76
2023/08/22 01:19:13;;;;;;;9.43;4.90;;;16.50;99.90;;;;;;5034902;28;20492;-76
2023/08/22 01:21:52;;;;;;;9.52;4.80;;;16.50;99.90;;;;;;5052006;28;20072;-76
2023/08/22 01:24:18;;;;;;;8.68;5.65;;;16.50;99.90;;;;;;5034352;28;20040;-76
2023/08/22 01:26:46;;;;;;;10.63;5.88;;;16.50;99.90;;;;;;5033966;28;20048;-76
2023/08/22 01:29:18;;;;;;;9.30;5.57;;;16.50;99.90;;;;;;5052209;28;20495;-76
2023/08/22 01:31:53;;;;;;;8.48;5.60;;;16.50;99.90;;;;;;5034417;28;20538;-77
2023/08/22 01:34:34;;;;;;;8.40;5.15;;;16.50;99.90;;;;;;5051779;28;20091;-76
2023/08/22 01:37:02;;;;;;;8.35;5.68;;;16.50;99.90;;;;;;5034042;28;20472;-76
2023/08/22 01:39:30;;;;;;;8.18;5.43;;;16.40;99.90;;;;;;5034710;28;20435;-76
2023/08/22 01:41:57;;;;;;;8.32;5.70;;;16.40;99.90;;;;;;5051108;28;20075;-77
2023/08/22 01:44:24;;;;;;;9.18;5.60;;;16.40;99.90;;;;;;5038076;28;20052;-76
2023/08/22 01:46:49;;;;;;;9.32;5.65;;;16.40;99.90;;;;;;5038015;28;20127;-76
2023/08/22 01:49:15;;;;;;;7.57;5.07;;;16.20;99.90;;;;;;5055586;28;20456;-77
2023/08/22 01:51:41;;;;;;;8.05;4.93;;;16.20;99.90;;;;;;5038119;28;20134;-77
2023/08/22 01:54:07;;;;;;;8.93;5.43;;;16.20;99.90;;;;;;5038294;28;20053;-77
2023/08/22 01:56:32;;;;;;;10.77;5.80;;;16.20;99.90;;;;;;5037319;28;20045;-77
2023/08/22 01:58:58;;;;;;;8.80;5.32;;;16.20;99.90;;;;;;5037968;28;20041;-76
2023/08/22 02:01:24;;;;;;;9.18;5.50;;;16.10;99.90;;;;;;5055999;28;20095;-76
2023/08/22 02:03:50;;;;;;;9.80;5.50;;;16.10;99.90;;;;;;5037698;28;20053;-77
2023/08/22 02:06:15;;;;;;;7.47;5.00;;;16.00;99.90;;;;;;5037732;28;20061;-76
2023/08/22 02:08:41;;;;;;;10.43;5.38;;;16.00;99.90;;;;;;5038107;28;20408;-76
2023/08/22 02:11:07;;;;;;;9.30;5.57;;;15.90;99.90;;;;;;5037027;28;20147;-76
2023/08/22 02:13:33;;;;;;;7.07;4.53;;;15.90;99.90;;;;;;5038492;28;20065;-77
2023/08/22 02:16:00;;;;;;;9.57;6.20;;;15.90;99.90;;;;;;5036336;28;20425;-77
2023/08/22 02:18:26;;;;;;;8.07;5.35;;;15.80;99.90;;;;;;5038184;28;20088;-77
2023/08/22 02:20:53;;;;;;;7.72;5.38;;;15.80;99.90;;;;;;5037591;28;20079;-76
2023/08/22 02:23:18;;;;;;;8.23;5.45;;;15.70;99.90;;;;;;5054868;28;20128;-77
2023/08/22 02:25:45;;;;;;;7.93;5.43;;;15.70;99.90;;;;;;5055542;28;20120;-77
2023/08/22 02:28:12;;;;;;;9.80;5.40;;;15.70;99.90;;;;;;5055896;28;20049;-77
2023/08/22 02:30:38;;;;;;;8.18;5.05;;;15.70;99.90;;;;;;5036929;28;20041;-76
2023/08/22 02:33:04;;;;;;;8.48;5.88;;;15.60;99.90;;;;;;5055558;28;20045;-77
2023/08/22 02:35:29;;;;;;;10.70;6.50;;;15.60;99.90;;;;;;5055336;28;20480;-77
2023/08/22 02:37:55;;;;;;;10.07;6.05;;;15.60;99.90;;;;;;5054542;28;20052;-76
2023/08/22 02:40:21;;;;;;;8.82;5.60;;;15.60;99.90;;;;;;5055420;28;20087;-76
2023/08/22 02:42:46;;;;;;;8.30;5.50;;;15.60;99.90;;;;;;5037359;28;20049;-77
2023/08/22 02:45:12;;;;;;;11.00;5.93;;;15.60;99.90;;;;;;5036817;28;20377;-77
2023/08/22 02:47:37;;;;;;;9.85;5.78;;;15.60;99.90;;;;;;5036791;28;20550;-77
2023/08/22 02:50:04;;;;;;;12.50;6.85;;;15.60;99.90;;;;;;5054847;28;20049;-76
2023/08/22 02:52:31;;;;;;;9.15;6.40;;;15.60;99.90;;;;;;5036691;28;20049;-76
2023/08/22 02:54:56;;;;;;;9.65;6.45;;;15.60;99.90;;;;;;5054421;28;20095;-77
2023/08/22 02:57:22;;;;;;;11.82;6.40;;;15.50;99.90;;;;;;5055292;28;20073;-77
2023/08/22 02:59:48;;;;;;;11.48;7.18;;;15.50;99.90;;;;;;5036347;28;20045;-76
2023/08/22 03:02:14;;;;;;;12.95;6.95;;;15.50;99.90;;;;;;5037172;28;20040;-76
2023/08/22 03:04:39;;;;;;;9.00;6.30;;;15.50;99.90;;;;;;5054560;28;20408;-77
2023/08/22 03:07:05;;;;;;;10.30;6.68;;;15.50;99.90;;;;;;5035750;28;20059;-77
2023/08/22 03:09:31;;;;;;;11.70;7.00;;;15.40;99.90;;;;;;5054480;28;20444;-77
2023/08/22 03:11:57;;;;;;;11.50;7.25;;;15.40;99.90;;;;;;5037000;28;20057;-76
2023/08/22 03:14:24;;;;;;;10.75;6.90;;;15.30;99.90;;;;;;5036032;28;20044;-77
2023/08/22 03:16:50;;;;;;;10.82;6.65;;;15.30;99.90;;;;;;5036430;28;20044;-77
2023/08/22 03:19:15;;;;;;;10.55;7.22;;;15.30;99.90;;;;;;5053960;28;20469;-76
2023/08/22 03:21:41;;;;;;;11.35;6.60;;;15.20;99.90;;;;;;5054505;28;20481;-77
2023/08/22 03:24:07;;;;;;;9.23;6.70;;;15.20;99.90;;;;;;5054010;28;20444;-77
2023/08/22 03:26:32;;;;;;;9.85;6.22;;;15.10;99.90;;;;;;5035829;28;20125;-77
2023/08/22 03:28:58;;;;;;;10.38;6.50;;;15.10;99.90;;;;;;5036269;28;20036;-76
2023/08/22 03:31:27;;;;;;;9.60;6.40;;;15.10;99.90;;;;;;5054367;28;20056;-76
2023/08/22 03:33:53;;;;;;;10.15;6.68;;;15.00;99.90;;;;;;5052781;28;20087;-76
2023/08/22 03:36:19;;;;;;;11.95;6.50;;;15.00;99.90;;;;;;5054324;28;20122;-77
2023/08/22 03:38:46;;;;;;;9.98;6.53;;;15.00;99.90;;;;;;5054220;28;20400;-77
2023/08/22 03:41:12;;;;;;;9.55;6.72;;;15.00;99.90;;;;;;5053196;28;20045;-76
2023/08/22 03:43:38;;;;;;;10.15;6.55;;;14.90;99.90;;;;;;5036302;28;20043;-77
2023/08/22 03:46:04;;;;;;;11.00;7.28;;;14.90;99.90;;;;;;5053753;28;20157;-77
2023/08/22 03:48:29;;;;;;;13.05;7.38;;;14.90;99.90;;;;;;5053062;28;20103;-75
2023/08/22 03:50:56;;;;;;;9.98;7.50;;;14.90;99.90;;;;;;5033878;28;20541;-77
2023/08/22 03:53:22;;;;;;;11.68;7.63;;;14.90;99.90;;;;;;5052480;28;20119;-77
2023/08/22 03:55:48;;;;;;;12.05;7.10;;;15.00;99.90;;;;;;5035405;28;20399;-77
2023/08/22 03:58:14;;;;;;;11.35;7.05;;;14.90;99.90;;;;;;5053769;28;20033;-77
2023/08/22 04:00:40;;;;;;;11.32;7.55;;;14.90;99.90;;;;;;5036134;28;20495;-77
2023/08/22 04:03:05;;;;;;;10.90;7.65;;;14.90;99.90;;;;;;5034446;28;20061;-77
2023/08/22 04:05:31;;;;;;;12.45;7.72;;;14.90;99.90;;;;;;5034912;28;20064;-77
2023/08/22 04:07:57;;;;;;;10.65;7.20;;;14.90;99.90;;;;;;5053397;28;20052;-77
2023/08/22 04:10:22;;;;;;;10.07;6.50;;;14.90;99.90;;;;;;5052789;28;20087;-75
2023/08/22 04:12:48;;;;;;;12.15;7.70;;;14.80;99.90;;;;;;5035383;28;20106;-75
2023/08/22 04:15:15;;;;;;;11.82;7.95;;;14.80;99.90;;;;;;5035625;28;20045;-76
2023/08/22 04:17:43;;;;;;;11.18;7.50;;;14.80;99.90;;;;;;5052892;28;20048;-78
2023/08/22 04:20:10;;;;;;;10.52;8.10;;;14.80;99.90;;;;;;5053584;28;20045;-77
2023/08/22 04:22:37;;;;;;;10.77;7.65;;;14.80;99.90;;;;;;5034608;28;20158;-76
2023/08/22 04:25:04;;;;;;;13.02;7.53;;;14.80;99.90;;;;;;5030944;28;20500;-76
2023/08/22 04:27:30;;;;;;;10.25;7.75;;;14.90;99.90;;;;;;5015824;28;20481;-77
2023/08/22 04:29:56;;;;;;;14.25;7.65;;;14.90;99.90;;;;;;5042625;28;20083;-77
2023/08/22 04:32:22;;;;;;;13.15;8.32;;;14.80;99.90;;;;;;5067783;28;20080;-77
2023/08/22 04:34:47;;;;;;;12.13;8.10;;;14.90;99.90;;;;;;5049645;28;20056;-76
2023/08/22 04:37:13;;;;;;;11.20;8.05;;;14.90;99.90;;;;;;5022140;28;20540;-77
2023/08/22 04:39:39;;;;;;;12.43;8.05;;;14.90;99.90;;;;;;5033479;28;20048;-76
2023/08/22 04:42:05;;;;;;;12.93;8.40;;;14.90;99.90;;;;;;5019391;28;20124;-76
2023/08/22 04:44:30;;;;;;;13.05;8.25;;;14.90;99.90;;;;;;5032674;28;20048;-76
2023/08/22 04:46:56;;;;;;;14.75;8.23;;;14.90;99.90;;;;;;5032696;28;20515;-76
2023/08/22 04:49:22;;;;;;;13.85;7.82;;;14.90;99.90;;;;;;5040096;28;20044;-77
2023/08/22 04:51:47;;;;;;;14.07;8.70;;;14.90;99.90;;;;;;5034094;28;20056;-76
2023/08/22 04:54:13;;;;;;;16.05;8.20;;;14.90;99.90;;;;;;5034796;28;20044;-76
2023/08/22 04:56:39;;;;;;;15.63;8.95;;;14.90;99.90;;;;;;5034954;28;20045;-76
2023/08/22 04:59:04;;;;;;;12.93;8.52;;;14.90;99.90;;;;;;5032880;28;20056;-77
2023/08/22 05:01:30;;;;;;;12.98;8.48;;;14.90;99.90;;;;;;5038586;28;20071;-77
2023/08/22 05:03:56;;;;;;;11.85;8.23;;;14.90;99.90;;;;;;5051359;28;20086;-77
2023/08/22 05:06:21;;;;;;;12.75;7.88;;;14.90;99.90;;;;;;5039886;28;20404;-78
2023/08/22 05:08:47;;;;;;;12.75;8.38;;;15.00;99.90;;;;;;5014981;28;20081;-77
2023/08/22 05:11:13;;;;;;;14.75;8.52;;;15.00;99.90;;;;;;5014950;28;20091;-77
2023/08/22 05:13:39;;;;;;;13.43;8.13;;;15.00;99.90;;;;;;5014401;28;20041;-78
2023/08/22 05:16:04;;;;;;;13.90;8.60;;;15.00;99.90;;;;;;5014500;28;20037;-77
2023/08/22 05:18:30;;;;;;;12.13;8.48;;;15.00;99.90;;;;;;5035674;28;20060;-77
2023/08/22 05:20:55;;;;;;;12.38;7.72;;;15.50;99.90;;;;;;5031590;28;20102;-77
2023/08/22 05:23:22;;;;;;;13.32;8.02;;;15.20;99.90;;;;;;5014836;28;20054;-77
2023/08/22 05:25:47;;;;;;;14.45;8.25;;;15.20;99.90;;;;;;5014401;28;20077;-77
2023/08/22 05:28:13;;;;;;;15.63;8.63;;;15.30;99.90;;;;;;5032523;28;20092;-77
2023/08/22 05:30:39;;;;;;;13.85;8.82;;;15.30;99.90;;;;;;5014637;28;20099;-77
2023/08/22 05:33:05;;;;;;;15.93;8.77;;;15.40;99.90;;;;;;5013665;28;20041;-77
2023/08/22 05:35:31;;;;;;;14.73;9.40;;;15.50;99.90;;;;;;5014881;28;20124;-77
2023/08/22 05:37:57;;;;;;;13.35;9.27;;;15.60;99.90;;;;;;5032332;28;20041;-76
2023/08/22 05:40:23;;;;;;;12.75;8.95;;;15.70;99.90;;;;;;5031880;28;20099;-77
2023/08/22 05:42:50;;;;;;;11.77;8.93;;;15.70;99.90;;;;;;5014418;28;20029;-76
2023/08/22 05:45:16;;;;;;;12.73;8.82;;;15.80;99.90;;;;;;5014499;28;20053;-76
2023/08/22 05:47:43;;;;;;;13.43;8.50;;;15.90;99.90;;;;;;5031850;28;20052;-77
2023/08/22 05:50:08;;;;;;;13.18;9.23;;;16.00;99.90;;;;;;5032177;28;20033;-77
2023/08/22 05:52:34;;;;;;;13.40;9.38;;;16.10;99.90;;;;;;5014894;28;20539;-77
2023/08/22 05:55:00;;;;;;;13.43;9.20;;;16.20;99.90;;;;;;5031503;28;20499;-77
2023/08/22 05:57:27;;;;;;;12.20;8.82;;;16.30;99.90;;;;;;5014558;28;20100;-77
2023/08/22 05:59:52;;;;;;;13.02;8.77;;;16.40;99.90;;;;;;5014128;28;20507;-77
2023/08/22 06:02:18;;;;;;;14.15;9.88;;;16.50;99.90;;;;;;5013698;28;20053;-77
2023/08/22 06:04:47;;;;;;;14.52;9.23;;;16.60;99.90;;;;;;5032088;28;20057;-77
2023/08/22 06:07:13;;;;;;;12.15;9.07;;;16.80;99.90;;;;;;5014302;28;20133;-77
2023/08/22 06:09:39;;;;;;;14.52;9.32;;;16.80;99.90;;;;;;5013981;28;20037;-77
2023/08/22 06:12:06;;;;;;;15.82;10.20;;;16.90;99.90;;;;;;5032041;28;20052;-77
2023/08/22 06:14:31;;;;;;;13.93;8.48;;;16.90;99.90;;;;;;5031971;28;20049;-77
2023/08/22 06:16:58;;;;;;;14.13;8.93;;;17.00;99.90;;;;;;5013370;28;20128;-77
2023/08/22 06:19:27;;;;;;;12.80;8.50;;;17.00;99.90;;;;;;5014527;28;20095;-77
2023/08/22 06:21:53;;;;;;;15.63;9.27;;;17.20;99.90;;;;;;5013869;28;20084;-77
2023/08/22 06:24:19;;;;;;;11.25;8.77;;;17.20;99.90;;;;;;5031623;28;20049;-76
2023/08/22 06:26:47;;;;;;;12.05;8.77;;;17.40;99.90;;;;;;5033473;28;20404;-77
2023/08/22 06:29:12;;;;;;;14.43;8.63;;;17.50;99.90;;;;;;5052244;28;20044;-75
2023/08/22 06:31:38;;;;;;;14.57;8.40;;;17.60;99.90;;;;;;5055739;28;20045;-76
2023/08/22 06:34:04;;;;;;;13.55;8.32;;;17.70;99.90;;;;;;5036832;28;20037;-76
2023/08/22 06:36:29;;;;;;;16.92;8.18;;;17.80;99.90;;;;;;5054357;28;20044;-77
2023/08/22 06:38:55;;;;;;;11.30;7.85;;;18.00;99.90;;;;;;5042599;28;20048;-77
2023/08/22 06:41:21;;;;;;;11.75;8.00;;;18.10;99.90;;;;;;5030816;28;20040;-75
2023/08/22 06:43:47;;;;;;;12.23;8.00;;;18.10;99.90;;;;;;5044952;28;20052;-77
2023/08/22 06:46:15;;;;;;;13.85;7.60;;;18.30;99.90;;;;;;5018428;28;20052;-75
2023/08/22 06:48:41;;;;;;;10.38;6.93;;;18.30;99.90;;;;;;5026657;28;20049;-77
2023/08/22 06:51:07;;;;;;;11.57;7.35;;;18.40;99.90;;;;;;5034454;28;20068;-78
2023/08/22 06:53:33;;;;;;;11.82;7.35;;;18.50;99.90;;;;;;5017423;28;20056;-77
2023/08/22 06:55:58;;;;;;;12.85;7.55;;;18.60;99.90;;;;;;5018007;28;20152;-76
2023/08/22 06:58:24;;;;;;;10.38;7.10;;;18.60;99.90;;;;;;5016537;28;20045;-76
2023/08/22 07:00:49;;;;;;;11.00;7.68;;;18.80;99.90;;;;;;5016842;28;20045;-76
2023/08/22 07:03:15;;;;;;;13.88;7.95;;;18.80;99.90;;;;;;5025116;28;20038;-76
2023/08/22 07:05:41;;;;;;;12.43;7.70;;;18.90;99.90;;;;;;5016106;28;20480;-78
2023/08/22 07:08:09;;;;;;;10.48;7.22;;;19.00;99.90;;;;;;5016975;28;20136;-77
2023/08/22 07:10:35;;;;;;;11.55;7.13;;;19.10;99.90;;;;;;5035056;28;20053;-76
2023/08/22 07:13:01;;;;;;;11.30;7.05;;;19.30;99.90;;;;;;5015860;28;20034;-76
2023/08/22 07:15:27;;;;;;;11.85;7.15;;;19.50;99.90;;;;;;5017015;28;20041;-80
2023/08/22 07:17:53;;;;;;;10.43;6.35;;;19.60;99.90;;;;;;5017023;28;20233;-78
2023/08/22 07:20:19;;;;;;;11.48;7.15;;;19.80;99.90;;;;;;5028732;28;20552;-75
2023/08/22 07:22:44;;;;;;;12.10;7.28;;;19.90;99.90;;;;;;5037244;28;20485;-77
2023/08/22 07:25:10;;;;;;;10.98;7.18;;;20.20;99.90;;;;;;5016431;28;20129;-77
2023/08/22 07:27:36;;;;;;;8.27;6.00;;;20.50;99.90;;;;;;5018297;28;20127;-78
2023/08/22 07:30:03;;;;;;;9.20;6.03;;;21.10;99.90;;;;;;5034409;28;20124;-78
2023/08/22 07:32:29;;;;;;;8.02;6.10;;;21.80;99.90;;;;;;5037531;28;20045;-78
2023/08/22 07:34:54;;;;;;;10.60;6.35;;;22.40;99.90;;;;;;5034176;28;20037;-80
2023/08/22 07:37:20;;;;;;;10.70;5.93;;;22.70;99.90;;;;;;5034421;28;20040;-76
2023/08/22 07:39:46;;;;;;;9.73;6.13;;;22.50;99.90;;;;;;5020447;28;20061;-77
2023/08/22 07:42:12;;;;;;;10.27;6.38;;;22.80;99.90;;;;;;5015831;28;20052;-79
2023/08/22 07:44:37;;;;;;;10.25;6.00;;;23.60;99.90;;;;;;5017991;28;20045;-77
2023/08/22 07:47:03;;;;;;;9.68;5.65;;;24.90;99.90;;;;;;5037366;28;20049;-79
2023/08/22 07:49:29;;;;;;;9.35;6.22;;;25.70;99.90;;;;;;5033423;28;20655;-81
2023/08/22 07:51:54;;;;;;;9.20;5.63;;;26.50;99.90;;;;;;5034032;28;20041;-83
2023/08/22 07:54:20;;;;;;;8.20;5.32;;;26.90;99.90;;;;;;5031997;28;20465;-84
2023/08/22 07:56:46;;;;;;;10.55;5.75;;;27.50;99.90;;;;;;5014585;28;20488;-77
2023/08/22 07:59:13;;;;;;;9.90;5.00;;;27.80;99.90;;;;;;5014170;28;20089;-76
2023/08/22 08:01:39;;;;;;;8.57;4.85;;;28.10;99.90;;;;;;5013871;28;20120;-77
2023/08/22 08:04:06;;;;;;;8.27;5.05;;;28.10;99.90;;;;;;5035705;28;20045;-77
2023/08/22 08:06:36;;;;;;;9.45;4.82;;;28.20;99.90;;;;;;5033377;28;20072;-79
2023/08/22 08:09:04;;;;;;;9.50;4.55;;;28.50;99.90;;;;;;5032823;28;20090;-75
2023/08/22 08:11:30;;;;;;;9.05;4.07;;;28.80;99.90;;;;;;5033921;28;20052;-75
2023/08/22 08:13:57;;;;;;;8.18;4.75;;;29.40;99.40;;;;;;5026701;28;20542;-75
2023/08/22 08:16:23;;;;;;;7.35;4.50;;;29.40;99.20;;;;;;5051666;28;20041;-73
2023/08/22 08:18:50;;;;;;;7.00;4.47;;;29.50;99.10;;;;;;5042394;28;20037;-74
2023/08/22 08:21:17;;;;;;;9.48;4.50;;;28.90;98.80;;;;;;5015870;28;20060;-74
2023/08/22 08:23:44;;;;;;;8.82;4.60;;;28.20;99.00;;;;;;5031792;28;20044;-73
2023/08/22 08:26:13;;;;;;;8.18;4.78;;;27.50;99.90;;;;;;5033484;28;20045;-73
2023/08/22 08:28:39;;;;;;;8.00;4.60;;;27.00;99.90;;;;;;5024137;28;20131;-73
2023/08/22 08:31:05;;;;;;;11.02;4.88;;;26.60;99.90;;;;;;5024064;28;20129;-73
2023/08/22 08:33:33;;;;;;;9.10;4.75;;;26.30;99.90;;;;;;5023253;28;20041;-73
2023/08/22 08:35:59;;;;;;;8.60;4.78;;;26.30;99.90;;;;;;5041978;28;20033;-73
2023/08/22 08:38:25;;;;;;;9.18;4.82;;;26.70;99.90;;;;;;5022644;28;20483;-73
2023/08/22 08:40:54;;;;;;;10.82;5.07;;;26.30;99.90;;;;;;5025734;28;20057;-73
2023/08/22 08:43:22;;;;;;;9.35;4.82;;;25.90;99.90;;;;;;5041947;28;20033;-73
2023/08/22 08:45:49;;;;;;;10.23;4.95;;;25.90;99.90;;;;;;5027371;28;20139;-73
2023/08/22 08:48:17;;;;;;;10.85;5.13;;;26.40;99.90;;;;;;5034410;28;20470;-72
2023/08/22 08:50:43;;;;;;;10.60;4.90;;;26.90;99.90;;;;;;5026614;28;20049;-76
2023/08/22 08:53:10;;;;;;;9.25;5.00;;;27.60;99.90;;;;;;5053035;28;20432;-73
2023/08/22 08:55:35;;;;;;;8.05;4.55;;;28.60;99.90;;;;;;5024930;28;20392;-73
2023/08/22 08:58:03;;;;;;;7.63;4.65;;;29.10;98.90;;;;;;5033029;28;20038;-74
2023/08/22 09:00:32;;;;;;;8.07;4.88;;;29.60;99.30;;;;;;5014989;28;20116;-74
2023/08/22 09:02:57;;;;;;;9.23;4.78;;;30.20;98.70;;;;;;5032698;28;20565;-74
2023/08/22 09:05:23;;;;;;;9.45;5.10;;;30.50;97.60;;;;;;5013928;28;20132;-73
2023/08/22 09:07:49;;;;;;;12.02;5.35;;;30.70;97.70;;;;;;5014446;28;20396;-75
2023/08/22 09:10:32;;;;;;;10.63;4.57;;;30.90;97.10;;;;;;5017911;28;20037;-72
2023/08/22 09:13:03;;;;;;;8.10;4.68;;;31.00;96.30;;;;;;5020329;28;20041;-73
2023/08/22 09:15:30;;;;;;;12.00;4.00;;;31.30;96.30;;;;;;5034338;28;20094;-72
2023/08/22 09:17:56;;;;;;;10.23;4.68;;;31.30;96.80;;;;;;5032638;28;20065;-71
2023/08/22 09:20:22;;;;;;;8.18;4.20;;;32.10;95.50;;;;;;5046739;28;20041;-73
2023/08/22 09:22:48;;;;;;;6.32;4.20;;;32.00;95.80;;;;;;5040906;28;20052;-73
2023/08/22 09:25:13;;;;;;;7.82;4.07;;;31.80;96.40;;;;;;5050871;28;20423;-75
2023/08/22 09:27:39;;;;;;;8.85;4.72;;;31.90;94.60;;;;;;5034367;28;20052;-73
2023/08/22 09:30:06;;;;;;;7.97;4.88;;;31.50;95.40;;;;;;5052305;28;20040;-74
2023/08/22 09:32:40;;;;;;;6.68;4.30;;;31.10;95.80;;;;;;5020199;28;20095;-76
2023/08/22 09:35:06;;;;;;;8.37;5.10;;;31.40;95.70;;;;;;5033946;28;20049;-77
2023/08/22 09:37:40;;;;;;;8.55;4.00;;;31.00;95.50;;;;;;5020129;28;20041;-77
2023/08/22 09:40:10;;;;;;;8.57;4.20;;;30.00;96.30;;;;;;5033038;28;20059;-75
2023/08/22 09:42:40;;;;;;;7.93;4.40;;;29.50;96.70;;;;;;5034136;28;20077;-76
2023/08/22 09:45:07;;;;;;;8.95;4.80;;;29.60;96.90;;;;;;5051796;28;20592;-75
2023/08/22 09:47:39;;;;;;;6.82;4.75;;;30.40;96.50;;;;;;5033637;28;20040;-77
2023/08/22 09:50:06;;;;;;;8.25;3.88;;;30.50;96.10;;;;;;5051879;28;20033;-77
2023/08/22 09:52:36;;;;;;;9.95;4.78;;;30.40;95.90;;;;;;5033778;28;20060;-76
2023/08/22 09:55:02;;;;;;;12.52;4.60;;;31.10;95.10;;;;;;5040765;28;20501;-79
2023/08/22 09:57:29;;;;;;;8.85;5.13;;;31.30;95.70;;;;;;5047284;28;20060;-79
2023/08/22 09:59:55;;;;;;;6.70;4.15;;;31.30;95.30;;;;;;5035508;28;20068;-77
2023/08/22 10:02:22;;;;;;;8.55;4.13;;;31.40;94.40;;;;;;5015398;28;20116;-77
2023/08/22 10:04:48;;;;;;;6.57;4.10;;;31.80;94.80;;;;;;5038042;28;20053;-75
2023/08/22 10:07:13;;;;;;;9.13;3.90;;;32.50;93.60;;;;;;5020339;28;20408;-76
2023/08/22 10:09:40;;;;;;;6.95;3.50;;;32.40;93.40;;;;;;5021487;28;20610;-79
2023/08/22 10:12:12;;;;;;;7.35;3.63;;;32.00;93.00;;;;;;5018060;28;20056;-77
2023/08/22 10:14:51;;;;;;;7.57;3.10;;;32.50;92.70;;;;;;5036200;28;20432;-81
2023/08/22 10:17:17;;;;;;;9.60;3.33;;;32.40;92.50;;;;;;5018435;28;20457;-78
2023/08/22 10:19:43;;;;;;;10.43;3.70;;;32.30;92.40;;;;;;5028125;28;20053;-77
2023/08/22 10:22:12;;;;;;;7.70;3.00;;;31.40;93.40;;;;;;5036727;28;20041;-76
2023/08/22 10:24:38;;;;;;;6.85;2.90;;;30.80;94.70;;;;;;5055764;28;20140;-77
2023/08/22 10:27:12;;;;;;;8.77;3.47;;;30.10;94.50;;;;;;5037040;28;20052;-74
2023/08/22 10:29:46;;;;;;;7.15;3.17;;;29.70;94.80;;;;;;5055093;28;20041;-78
2023/08/22 10:32:11;;;;;;;8.00;3.25;;;29.80;95.10;;;;;;5055455;28;20369;-74
2023/08/22 10:34:40;;;;;;;10.77;4.63;;;30.00;94.90;;;;;;5037040;28;20056;-75
2023/08/22 10:37:12;;;;;;;7.18;4.28;;;29.60;95.10;;;;;;5036054;28;20076;-74
2023/08/22 10:39:42;;;;;;;8.23;3.72;;;30.10;95.00;;;;;;5037423;28;20044;-74
2023/08/22 10:42:17;;;;;;;7.18;3.90;;;30.50;94.70;;;;;;5029084;28;20512;-75
2023/08/22 10:44:57;;;;;;;8.02;3.85;;;30.80;94.00;;;;;;5047880;28;20091;-74
2023/08/22 10:47:27;;;;;;;6.90;3.75;;;30.60;94.20;;;;;;5055056;28;20048;-75
2023/08/22 10:49:55;;;;;;;8.23;4.00;;;30.80;94.40;;;;;;5028878;28;20044;-75
2023/08/22 10:52:32;;;;;;;12.20;3.30;;;30.90;94.00;;;;;;5027660;28;20155;-75
2023/08/22 10:55:11;;;;;;;7.50;4.05;;;31.40;93.80;;;;;;5017321;28;20041;-75
2023/08/22 10:57:41;;;;;;;11.75;4.47;;;31.30;93.60;;;;;;5036455;28;20049;-76
2023/08/22 11:00:17;;;;;;;6.70;3.67;;;31.30;93.50;;;;;;5034744;28;20042;-76
2023/08/22 11:02:44;;;;;;;8.90;3.95;;;31.30;94.10;;;;;;5050374;28;20396;-76
2023/08/22 11:05:12;;;;;;;10.13;4.00;;;31.70;93.50;;;;;;5034435;28;20068;-75
2023/08/22 11:07:44;;;;;;;6.95;3.67;;;31.70;93.90;;;;;;5035358;28;20057;-76
2023/08/22 11:10:21;;;;;;;11.65;4.70;;;31.70;93.70;;;;;;5035614;28;20043;-72
2023/08/22 11:12:49;;;;;;;6.65;4.18;;;30.70;93.30;;;;;;5037005;28;20048;-73
2023/08/22 11:15:15;;;;;;;8.48;5.05;;;30.50;94.00;;;;;;5035218;28;20049;-73
2023/08/22 11:17:43;;;;;;;8.10;5.10;;;30.30;93.80;;;;;;5052436;28;20045;-73
2023/08/22 11:20:13;;;;;;;9.55;4.93;;;30.10;93.20;;;;;;5054156;28;20045;-73
2023/08/22 11:22:40;;;;;;;8.77;4.63;;;30.00;93.60;;;;;;5054628;28;20047;-73
2023/08/22 11:25:06;;;;;;;8.82;4.82;;;29.60;94.00;;;;;;5035468;28;20057;-73
2023/08/22 11:27:35;;;;;;;11.05;5.07;;;29.30;94.20;;;;;;5036116;28;20048;-74
2023/08/22 11:30:01;;;;;;;8.63;5.50;;;29.40;94.30;;;;;;5036238;28;20037;-76
2023/08/22 11:32:29;;;;;;;10.65;5.35;;;29.70;94.00;;;;;;5036059;28;20044;-74
2023/08/22 11:35:04;;;;;;;7.70;4.68;;;29.90;94.40;;;;;;5054188;28;20044;-77
2023/08/22 11:37:34;;;;;;;8.73;4.80;;;30.20;94.30;;;;;;5035375;28;20049;-82
2023/08/22 11:40:01;;;;;;;8.43;4.72;;;30.60;93.80;;;;;;5035400;28;20041;-81
2023/08/22 11:42:30;;;;;;;8.00;4.53;;;30.90;93.60;;;;;;5036223;28;20072;-86
2023/08/22 11:45:05;;;;;;;8.40;4.25;;;31.30;93.20;;;;;;5053840;28;20044;-75
2023/08/22 11:47:45;;;;;;;7.53;4.00;;;30.90;93.00;;;;;;5035819;28;20045;-76
2023/08/22 11:50:16;;;;;;;9.98;3.95;;;30.50;92.70;;;;;;5053706;28;20060;-76
2023/08/22 11:52:49;;;;;;;6.65;3.40;;;30.00;93.70;;;;;;5035539;28;20400;-72
2023/08/22 11:55:16;;;;;;;7.68;3.25;;;29.80;93.30;;;;;;5036129;28;20045;-73
2023/08/22 11:57:43;;;;;;;7.55;3.40;;;29.90;93.40;;;;;;5035085;28;20374;-73
2023/08/22 12:00:13;;;;;;;6.35;3.22;;;29.30;94.10;;;;;;5050748;28;20449;-71
2023/08/22 12:02:48;;;;;;;9.55;3.50;;;29.10;94.40;;;;;;5035699;28;20510;-73
2023/08/22 12:05:38;;;;;;;5.90;3.35;;;29.50;95.00;;;;;;5035635;28;20106;-73
2023/08/22 12:08:06;;;;;;;6.57;3.50;;;29.80;94.30;;;;;;5033410;28;20045;-72
2023/08/22 12:10:48;;;;;;;7.47;3.60;;;29.70;94.30;;;;;;5037291;28;20135;-74
2023/08/22 12:13:23;;;;;;;8.85;3.88;;;29.70;94.00;;;;;;5032315;28;20044;-74
2023/08/22 12:15:50;;;;;;;7.22;3.55;;;29.70;94.10;;;;;;5043729;28;20463;-75
2023/08/22 12:18:17;;;;;;;7.78;3.55;;;29.90;94.00;;;;;;5018522;28;20045;-77
2023/08/22 12:20:44;;;;;;;7.53;3.10;;;30.40;94.00;;;;;;5019108;28;20091;-77
2023/08/22 12:23:11;;;;;;;6.55;2.80;;;30.50;93.30;;;;;;5031234;28;20128;-76
2023/08/22 12:25:38;;;;;;;7.70;3.42;;;29.90;93.10;;;;;;5015367;28;20046;-75
2023/08/22 12:28:04;;;;;;;6.40;3.75;;;29.90;93.50;;;;;;5014233;28;20048;-75
2023/08/22 12:30:35;;;;;;;9.55;4.00;;;29.50;93.00;;;;;;5015784;28;20040;-75
2023/08/22 12:33:03;;;;;;;5.25;3.30;;;29.20;93.80;;;;;;5034256;28;20042;-75
2023/08/22 12:35:33;;;;;;;4.25;2.83;;;29.20;93.70;;;;;;5014878;28;20101;-76
2023/08/22 12:37:59;;;;;;;9.55;4.03;;;29.60;93.20;;;;;;5015357;28;20538;-75
2023/08/22 12:40:24;;;;;;;11.73;5.03;;;29.50;93.60;;;;;;5015773;28;20451;-74
2023/08/22 12:42:50;;;;;;;8.27;4.90;;;29.50;94.10;;;;;;5032257;28;20155;-73